createdAt,value
2023-02-19T00:01:47.702Z,83.88
2023-02-19T00:04:18.040Z,83.08
2023-02-19T00:06:46.402Z,83.51
2023-02-19T00:09:16.215Z,83.52
2023-02-19T00:11:44.635Z,82.97
2023-02-19T00:14:15.764Z,82.97
2023-02-19T00:16:42.958Z,83.11
2023-02-19T00:19:15.044Z,82.40
2023-02-19T00:21:42.955Z,83.36
2023-02-19T00:24:12.157Z,84.34
2023-02-19T00:26:41.006Z,83.55
2023-02-19T00:29:12.488Z,82.37
2023-02-19T00:31:40.527Z,81.77
2023-02-19T00:34:09.630Z,82.65
2023-02-19T00:36:38.790Z,79.54
2023-02-19T00:39:07.615Z,79.38
2023-02-19T00:41:34.896Z,78.45
2023-02-19T00:44:05.122Z,76.67
2023-02-19T00:46:38.503Z,72.12
2023-02-19T00:49:07.923Z,70.25
2023-02-19T00:51:37.572Z,65.11
2023-02-19T00:54:06.162Z,60.39
2023-02-19T00:56:34.070Z,54.45
2023-02-19T00:59:01.763Z,53.97
2023-02-19T01:01:29.068Z,52.52
2023-02-19T01:03:56.460Z,50.62
2023-02-19T01:06:24.529Z,50.91
2023-02-19T01:08:52.120Z,49.50
2023-02-19T01:11:20.587Z,49.36
2023-02-19T01:13:48.489Z,47.58
2023-02-19T01:16:22.152Z,47.63
2023-02-19T01:18:49.873Z,47.67
2023-02-19T01:21:21.004Z,48.19
2023-02-19T01:23:49.641Z,46.93
2023-02-19T01:26:21.768Z,48.12
2023-02-19T01:28:49.431Z,47.46
2023-02-19T01:31:20.544Z,47.74
2023-02-19T01:33:50.466Z,48.47
2023-02-19T01:36:18.361Z,48.24
2023-02-19T01:38:46.347Z,48.35
2023-02-19T01:41:17.805Z,47.59
2023-02-19T01:44:11.606Z,45.96
2023-02-19T01:46:40.753Z,45.99
2023-02-19T01:49:08.424Z,46.87
2023-02-19T01:51:39.463Z,47.82
2023-02-19T01:54:08.801Z,47.44
2023-02-19T01:56:38.606Z,49.52
2023-02-19T01:59:07.643Z,49.95
2023-02-19T02:01:36.183Z,53.17
2023-02-19T02:04:04.379Z,53.79
2023-02-19T02:06:41.410Z,56.28
2023-02-19T02:09:28.049Z,56.43
2023-02-19T02:11:55.893Z,56.92
2023-02-19T02:14:30.021Z,56.59
2023-02-19T02:17:16.086Z,56.69
2023-02-19T02:20:08.151Z,57.88
2023-02-19T02:22:50.958Z,57.52
2023-02-19T02:25:37.061Z,58.65
2023-02-19T02:28:23.805Z,58.17
2023-02-19T02:30:56.634Z,58.68
2023-02-19T02:33:39.795Z,59.73
2023-02-19T02:36:25.499Z,59.77
2023-02-19T02:38:54.359Z,59.52
2023-02-19T02:41:22.257Z,60.08
2023-02-19T02:43:49.657Z,60.97
2023-02-19T02:46:23.751Z,60.17
2023-02-19T02:48:55.598Z,60.96
2023-02-19T02:51:31.170Z,61.44
2023-02-19T02:54:35.558Z,63.00
2023-02-19T02:57:07.120Z,63.48
2023-02-19T02:59:39.933Z,64.12
2023-02-19T03:02:18.902Z,64.40
2023-02-19T03:05:35.921Z,64.77
2023-02-19T03:08:12.993Z,64.45
2023-02-19T03:10:50.334Z,64.51
2023-02-19T03:13:47.734Z,63.93
2023-02-19T03:16:47.034Z,65.45
2023-02-19T03:19:19.414Z,65.90
2023-02-19T03:21:59.217Z,65.33
2023-02-19T03:24:55.724Z,65.55
2023-02-19T03:27:28.181Z,65.75
2023-02-19T03:29:59.439Z,64.83
2023-02-19T03:32:59.038Z,65.96
2023-02-19T03:35:34.516Z,66.05
2023-02-19T03:38:04.695Z,66.59
2023-02-19T03:40:42.370Z,67.07
2023-02-19T03:43:12.653Z,68.18
2023-02-19T03:46:01.765Z,68.52
2023-02-19T03:48:35.736Z,68.29
2023-02-19T03:51:29.001Z,68.36
2023-02-19T03:54:13.322Z,68.07
2023-02-19T03:56:53.429Z,68.68
2023-02-19T03:59:27.623Z,69.60
2023-02-19T04:02:06.545Z,69.27
2023-02-19T04:05:21.269Z,70.79
2023-02-19T04:07:52.361Z,70.08
2023-02-19T04:10:22.012Z,69.46
2023-02-19T04:13:01.874Z,69.98
2023-02-19T04:15:33.870Z,69.92
2023-02-19T04:18:07.130Z,70.12
2023-02-19T04:20:40.559Z,69.66
2023-02-19T04:23:08.072Z,69.18
2023-02-19T04:25:38.332Z,69.33
2023-02-19T04:28:05.815Z,69.86
2023-02-19T04:30:33.211Z,69.99
2023-02-19T04:33:00.929Z,69.70
2023-02-19T04:35:28.248Z,69.94
2023-02-19T04:37:55.560Z,70.06
2023-02-19T04:40:23.072Z,71.97
2023-02-19T04:42:50.405Z,71.82
2023-02-19T04:45:17.772Z,71.17
2023-02-19T04:47:45.470Z,72.71
2023-02-19T04:50:13.023Z,72.08
2023-02-19T04:52:40.307Z,71.72
2023-02-19T04:55:09.071Z,72.15
2023-02-19T04:57:36.464Z,72.65
2023-02-19T05:00:04.896Z,73.00
2023-02-19T05:02:32.606Z,72.10
2023-02-19T05:05:00.169Z,71.82
2023-02-19T05:07:27.479Z,72.41
2023-02-19T05:09:55.165Z,72.60
2023-02-19T05:12:22.452Z,72.76
2023-02-19T05:14:49.765Z,73.41
2023-02-19T05:17:17.424Z,73.39
2023-02-19T05:19:45.494Z,73.08
2023-02-19T05:22:12.816Z,74.01
2023-02-19T05:24:42.872Z,75.02
2023-02-19T05:27:10.150Z,74.90
2023-02-19T05:29:37.525Z,76.18
2023-02-19T05:32:05.285Z,76.63
2023-02-19T05:34:32.780Z,77.29
2023-02-19T05:37:00.053Z,77.80
2023-02-19T05:39:27.740Z,77.91
2023-02-19T05:41:55.322Z,77.87
2023-02-19T05:44:22.652Z,77.18
2023-02-19T05:46:50.567Z,76.16
2023-02-19T05:49:17.848Z,75.78
2023-02-19T05:51:45.379Z,75.56
2023-02-19T05:54:14.185Z,74.61
2023-02-19T05:56:42.655Z,75.98
2023-02-19T05:59:19.618Z,76.47
2023-02-19T06:01:48.295Z,76.38
2023-02-19T06:04:16.157Z,73.62
2023-02-19T06:06:43.995Z,74.12
2023-02-19T06:09:11.765Z,74.00
2023-02-19T06:11:40.253Z,73.65
2023-02-19T06:14:07.576Z,74.39
2023-02-19T06:16:34.869Z,74.35
2023-02-19T06:19:04.319Z,73.79
2023-02-19T06:21:31.955Z,73.55
2023-02-19T06:23:59.434Z,73.18
2023-02-19T06:26:27.116Z,74.28
2023-02-19T06:28:54.797Z,74.25
2023-02-19T06:31:23.217Z,73.38
2023-02-19T06:33:51.064Z,72.88
2023-02-19T06:36:23.602Z,72.86
2023-02-19T06:38:52.138Z,72.19
2023-02-19T06:41:19.823Z,74.94
2023-02-19T06:43:47.532Z,74.36
2023-02-19T06:46:15.473Z,73.95
2023-02-19T06:48:45.177Z,73.05
2023-02-19T06:51:14.535Z,72.86
2023-02-19T06:53:42.187Z,72.16
2023-02-19T06:56:33.599Z,71.74
2023-02-19T06:59:03.881Z,70.77
2023-02-19T07:01:33.756Z,71.00
2023-02-19T07:04:02.371Z,70.60
2023-02-19T07:06:30.265Z,68.14
2023-02-19T07:08:59.640Z,67.21
2023-02-19T07:11:29.262Z,66.89
2023-02-19T07:13:57.108Z,66.24
2023-02-19T07:16:25.497Z,66.84
2023-02-19T07:18:53.677Z,66.54
2023-02-19T07:21:21.580Z,65.90
2023-02-19T07:23:49.185Z,64.76
2023-02-19T07:26:19.240Z,64.94
2023-02-19T07:28:49.184Z,61.55
2023-02-19T07:31:18.455Z,58.65
2023-02-19T07:33:46.436Z,58.49
2023-02-19T07:36:16.699Z,57.62
2023-02-19T07:38:44.955Z,57.41
2023-02-19T07:41:12.835Z,53.77
2023-02-19T07:43:41.689Z,52.11
2023-02-19T07:46:12.434Z,51.91
2023-02-19T07:48:41.613Z,52.09
2023-02-19T07:51:14.036Z,50.10
2023-02-19T07:53:41.815Z,51.49
2023-02-19T07:56:14.299Z,49.83
2023-02-19T07:58:42.003Z,48.02
2023-02-19T08:01:14.059Z,47.17
2023-02-19T08:03:42.988Z,47.35
2023-02-19T08:06:11.705Z,46.27
2023-02-19T08:08:40.282Z,46.82
2023-02-19T08:11:26.894Z,47.22
2023-02-19T08:13:54.311Z,46.82
2023-02-19T08:16:36.925Z,45.19
2023-02-19T08:19:09.698Z,46.25
2023-02-19T08:21:37.694Z,46.49
2023-02-19T08:24:05.433Z,45.47
2023-02-19T08:26:33.573Z,45.50
2023-02-19T08:29:01.561Z,44.67
2023-02-19T08:31:29.003Z,44.12
2023-02-19T08:33:56.828Z,44.19
2023-02-19T08:36:24.736Z,45.28
2023-02-19T08:38:52.202Z,45.48
2023-02-19T08:41:19.643Z,44.02
2023-02-19T08:43:47.471Z,43.79
2023-02-19T08:46:15.367Z,43.39
2023-02-19T08:48:42.709Z,42.90
2023-02-19T08:51:12.385Z,44.23
2023-02-19T08:53:40.936Z,44.09
2023-02-19T08:56:11.859Z,42.45
2023-02-19T08:58:40.177Z,43.41
2023-02-19T09:01:12.837Z,44.80
2023-02-19T09:03:41.198Z,44.40
2023-02-19T09:06:12.384Z,43.49
2023-02-19T09:08:39.892Z,42.70
2023-02-19T09:11:07.574Z,43.04
2023-02-19T09:13:34.970Z,42.59
2023-02-19T09:16:06.437Z,40.61
2023-02-19T09:18:34.416Z,41.41
2023-02-19T09:21:06.196Z,41.65
2023-02-19T09:23:35.775Z,42.34
2023-02-19T09:26:06.980Z,40.99
2023-02-19T09:28:34.953Z,40.32
2023-02-19T09:31:06.795Z,40.74
2023-02-19T09:33:34.857Z,40.80
2023-02-19T09:36:03.396Z,40.35
2023-02-19T09:38:31.160Z,41.26
2023-02-19T09:41:06.038Z,40.89
2023-02-19T09:43:34.231Z,40.69
2023-02-19T09:46:09.907Z,40.76
2023-02-19T09:48:37.284Z,40.46
2023-02-19T09:51:05.436Z,39.92
2023-02-19T09:53:44.493Z,40.25
2023-02-19T09:56:12.410Z,40.02
2023-02-19T09:58:56.395Z,40.09
2023-02-19T10:01:29.146Z,40.01
2023-02-19T10:03:56.908Z,39.58
2023-02-19T10:06:26.637Z,38.37
2023-02-19T10:09:00.128Z,38.26
2023-02-19T10:11:28.134Z,37.79
2023-02-19T10:14:10.915Z,37.68
2023-02-19T10:16:43.996Z,38.40
2023-02-19T10:19:13.050Z,38.36
2023-02-19T10:21:41.821Z,37.88
2023-02-19T10:24:18.653Z,37.77
2023-02-19T10:26:46.377Z,36.07
2023-02-19T10:29:13.815Z,35.24
2023-02-19T10:31:41.156Z,35.86
2023-02-19T10:34:18.881Z,35.21
2023-02-19T10:36:51.314Z,36.80
2023-02-19T10:39:21.916Z,35.54
2023-02-19T10:41:51.282Z,36.07
2023-02-19T10:44:24.483Z,37.01
2023-02-19T10:46:55.536Z,37.23
2023-02-19T10:49:30.375Z,37.18
2023-02-19T10:52:02.654Z,36.20
2023-02-19T10:54:35.607Z,36.25
2023-02-19T10:57:15.247Z,35.99
2023-02-19T10:59:51.090Z,35.43
2023-02-19T11:02:20.737Z,35.25
2023-02-19T11:05:16.427Z,35.60
2023-02-19T11:07:51.022Z,34.29
2023-02-19T11:10:34.620Z,33.68
2023-02-19T11:13:04.563Z,34.14
2023-02-19T11:15:32.264Z,34.71
2023-02-19T11:18:05.315Z,36.30
2023-02-19T11:20:33.692Z,34.33
2023-02-19T11:23:15.800Z,35.04
2023-02-19T11:25:49.230Z,34.09
2023-02-19T11:28:36.865Z,34.92
2023-02-19T11:31:19.938Z,34.90
2023-02-19T11:34:26.324Z,34.43
2023-02-19T11:37:09.780Z,33.65
2023-02-19T11:39:38.327Z,32.53
2023-02-19T11:42:13.076Z,32.37
2023-02-19T11:44:49.498Z,32.74
2023-02-19T11:47:41.623Z,33.27
2023-02-19T11:50:43.267Z,32.83
2023-02-19T11:53:34.719Z,32.51
2023-02-19T11:56:16.334Z,32.04
2023-02-19T11:59:06.447Z,32.89
2023-02-19T12:01:45.877Z,32.85
2023-02-19T12:04:38.144Z,32.42
2023-02-19T12:07:37.926Z,30.50
2023-02-19T12:10:19.553Z,31.22
2023-02-19T12:12:51.706Z,31.18
2023-02-19T12:15:26.615Z,32.71
2023-02-19T12:18:19.593Z,33.24
2023-02-19T12:21:14.505Z,32.83
2023-02-19T12:24:01.270Z,31.47
2023-02-19T12:26:38.099Z,30.93
2023-02-19T12:29:43.123Z,31.12
2023-02-19T12:32:29.089Z,31.70
2023-02-19T12:35:32.956Z,31.04
2023-02-19T12:38:15.686Z,31.44
2023-02-19T12:41:01.840Z,30.73
2023-02-19T12:43:32.215Z,29.78
2023-02-19T12:46:02.187Z,28.84
2023-02-19T12:48:39.108Z,28.98
2023-02-19T12:51:27.592Z,29.37
2023-02-19T12:54:04.221Z,29.39
2023-02-19T12:56:36.637Z,28.58
2023-02-19T12:59:09.358Z,28.65
2023-02-19T13:02:05.650Z,28.36
2023-02-19T13:04:56.015Z,27.93
2023-02-19T13:07:29.106Z,28.31
2023-02-19T13:10:04.516Z,28.28
2023-02-19T13:12:39.610Z,28.17
2023-02-19T13:15:17.987Z,27.06
2023-02-19T13:17:52.441Z,27.78
2023-02-19T13:20:32.804Z,27.88
2023-02-19T13:23:24.702Z,27.86
2023-02-19T13:26:05.818Z,27.77
2023-02-19T13:28:50.416Z,27.42
2023-02-19T13:31:37.087Z,27.74
2023-02-19T13:34:16.769Z,26.50
2023-02-19T13:36:44.867Z,25.97
2023-02-19T13:39:17.569Z,26.98
2023-02-19T13:42:01.681Z,27.79
2023-02-19T13:44:31.958Z,27.53
2023-02-19T13:47:01.067Z,27.77
2023-02-19T13:49:28.423Z,27.95
2023-02-19T13:52:01.340Z,27.89
2023-02-19T13:54:40.313Z,29.91
2023-02-19T13:57:22.996Z,29.55
2023-02-19T13:59:52.024Z,26.14
2023-02-19T14:02:28.293Z,26.95
2023-02-19T14:04:57.636Z,27.34
2023-02-19T14:07:28.081Z,25.32
2023-02-19T14:09:55.834Z,24.49
2023-02-19T14:12:33.413Z,23.42
2023-02-19T14:15:39.551Z,24.19
2023-02-19T14:18:43.896Z,22.54
2023-02-19T14:21:38.242Z,22.50
2023-02-19T14:24:11.300Z,21.94
2023-02-19T14:26:40.594Z,19.50
2023-02-19T14:29:10.806Z,20.17
2023-02-19T14:31:39.104Z,18.84
2023-02-19T14:34:19.666Z,19.91
2023-02-19T14:36:54.998Z,18.84
2023-02-19T14:39:32.054Z,17.27
2023-02-19T14:42:03.185Z,17.15
2023-02-19T14:44:35.635Z,17.77
2023-02-19T14:47:09.431Z,17.61
2023-02-19T14:49:58.476Z,18.16
2023-02-19T14:52:33.560Z,17.86
2023-02-19T14:55:04.223Z,18.42
2023-02-19T14:57:38.487Z,18.76
2023-02-19T15:00:40.149Z,18.48
2023-02-19T15:03:26.082Z,20.67
2023-02-19T15:05:58.784Z,21.93
2023-02-19T15:08:34.363Z,23.24
2023-02-19T15:11:04.461Z,22.59
2023-02-19T15:13:32.190Z,25.15
2023-02-19T15:15:59.995Z,25.14
2023-02-19T15:18:30.096Z,25.32
2023-02-19T15:21:03.864Z,25.60
2023-02-19T15:23:34.480Z,25.51
2023-02-19T15:26:02.616Z,26.39
2023-02-19T15:28:33.106Z,26.26
2023-02-19T15:31:00.864Z,29.61
2023-02-19T15:33:28.677Z,30.26
2023-02-19T15:35:59.919Z,29.52
2023-02-19T15:38:29.033Z,30.28
2023-02-19T15:40:57.997Z,31.66
2023-02-19T15:43:28.220Z,31.44
2023-02-19T15:46:04.258Z,32.12
2023-02-19T15:48:39.369Z,33.35
2023-02-19T15:51:14.537Z,33.37
2023-02-19T15:53:48.940Z,33.70
2023-02-19T15:56:28.339Z,33.52
2023-02-19T15:59:07.170Z,34.64
2023-02-19T16:01:39.311Z,34.54
2023-02-19T16:04:14.347Z,36.99
2023-02-19T16:06:57.054Z,36.95
2023-02-19T16:09:39.993Z,37.02
2023-02-19T16:12:24.966Z,37.66
2023-02-19T16:14:52.738Z,35.53
2023-02-19T16:17:23.336Z,33.79
2023-02-19T16:20:03.575Z,33.54
2023-02-19T16:22:41.038Z,32.74
2023-02-19T16:25:25.540Z,31.65
2023-02-19T16:27:53.666Z,32.35
2023-02-19T16:30:34.054Z,32.92
2023-02-19T16:33:36.612Z,33.96
2023-02-19T16:36:23.736Z,33.41
2023-02-19T16:39:09.569Z,33.29
2023-02-19T16:41:40.056Z,32.68
2023-02-19T16:44:27.561Z,33.09
2023-02-19T16:46:59.705Z,33.77
2023-02-19T16:49:27.375Z,34.88
2023-02-19T16:51:54.933Z,35.12
2023-02-19T16:54:22.305Z,34.99
2023-02-19T16:56:49.988Z,35.08
2023-02-19T16:59:17.419Z,34.81
2023-02-19T17:01:44.829Z,34.88
2023-02-19T17:04:15.921Z,35.35
2023-02-19T17:06:44.587Z,35.81
2023-02-19T17:09:12.279Z,36.56
2023-02-19T17:11:40.343Z,36.18
2023-02-19T17:14:09.493Z,36.94
2023-02-19T17:16:40.584Z,37.02
2023-02-19T17:19:18.212Z,37.96
2023-02-19T17:21:47.438Z,38.63
2023-02-19T17:24:15.828Z,38.21
2023-02-19T17:26:43.295Z,38.92
2023-02-19T17:29:14.432Z,39.45
2023-02-19T17:31:41.964Z,38.80
2023-02-19T17:34:09.498Z,39.69
2023-02-19T17:36:38.266Z,40.47
2023-02-19T17:39:08.937Z,40.67
2023-02-19T17:41:36.650Z,41.24
2023-02-19T17:44:03.994Z,41.60
2023-02-19T17:46:31.457Z,42.52
2023-02-19T17:48:59.288Z,41.81
2023-02-19T17:51:26.685Z,42.98
2023-02-19T17:53:53.995Z,43.65
2023-02-19T17:56:25.683Z,44.57
2023-02-19T17:58:57.067Z,45.03
2023-02-19T18:01:25.002Z,44.31
2023-02-19T18:03:52.895Z,44.31
2023-02-19T18:06:20.774Z,45.14
2023-02-19T18:08:52.722Z,45.84
2023-02-19T18:11:24.593Z,44.59
2023-02-19T18:13:52.455Z,43.23
2023-02-19T18:16:20.194Z,42.66
2023-02-19T18:18:47.786Z,43.26
2023-02-19T18:21:15.112Z,43.77
2023-02-19T18:23:42.764Z,43.91
2023-02-19T18:26:11.368Z,44.87
2023-02-19T18:28:38.823Z,44.12
2023-02-19T18:31:06.939Z,44.74
2023-02-19T18:33:35.462Z,46.15
2023-02-19T18:36:03.523Z,47.25
2023-02-19T18:38:31.196Z,48.29
2023-02-19T18:40:58.990Z,48.24
2023-02-19T18:43:26.452Z,49.58
2023-02-19T18:45:54.299Z,49.37
2023-02-19T18:48:22.974Z,49.49
2023-02-19T18:50:50.404Z,49.54
2023-02-19T18:53:18.145Z,49.97
2023-02-19T18:55:45.600Z,49.85
2023-02-19T18:58:12.869Z,49.94
2023-02-19T19:00:40.667Z,50.17
2023-02-19T19:03:08.110Z,49.96
2023-02-19T19:05:35.410Z,49.94
2023-02-19T19:08:03.407Z,50.66
2023-02-19T19:10:31.069Z,49.66
2023-02-19T19:12:58.785Z,48.86
2023-02-19T19:15:26.778Z,49.70
2023-02-19T19:17:55.163Z,49.57
2023-02-19T19:20:23.570Z,50.25
2023-02-19T19:22:52.839Z,50.25
2023-02-19T19:25:21.425Z,50.74
2023-02-19T19:27:50.828Z,50.97
2023-02-19T19:30:20.396Z,51.21
2023-02-19T19:32:52.468Z,51.23
2023-02-19T19:35:21.514Z,52.38
2023-02-19T19:37:49.962Z,52.69
2023-02-19T19:40:18.692Z,51.97
2023-02-19T19:42:46.673Z,52.05
2023-02-19T19:45:15.585Z,54.43
2023-02-19T19:47:43.179Z,54.17
2023-02-19T19:50:13.333Z,53.83
2023-02-19T19:52:40.673Z,54.86
2023-02-19T19:55:08.985Z,54.34
2023-02-19T19:57:39.038Z,53.57
2023-02-19T20:00:09.461Z,54.55
2023-02-19T20:02:39.806Z,54.47
2023-02-19T20:05:07.765Z,54.96
2023-02-19T20:07:35.218Z,55.46
2023-02-19T20:10:02.831Z,55.87
2023-02-19T20:12:30.675Z,55.76
2023-02-19T20:14:58.114Z,55.37
2023-02-19T20:17:27.596Z,55.56
2023-02-19T20:19:55.380Z,55.55
2023-02-19T20:22:22.786Z,56.23
2023-02-19T20:24:52.080Z,56.15
2023-02-19T20:27:21.129Z,55.92
2023-02-19T20:29:48.906Z,53.05
2023-02-19T20:32:20.214Z,52.80
2023-02-19T20:34:48.743Z,51.57
2023-02-19T20:37:16.296Z,50.20
2023-02-19T20:39:43.655Z,49.68
2023-02-19T20:42:11.470Z,49.28
2023-02-19T20:44:38.906Z,48.90
2023-02-19T20:47:06.575Z,48.94
2023-02-19T20:49:34.657Z,48.86
2023-02-19T20:52:06.936Z,48.85
2023-02-19T20:54:36.042Z,49.28
2023-02-19T20:57:05.543Z,49.45
2023-02-19T20:59:35.614Z,49.66
2023-02-19T21:02:08.966Z,49.36
2023-02-19T21:04:38.829Z,50.38
2023-02-19T21:07:07.216Z,49.77
2023-02-19T21:09:34.627Z,50.24
2023-02-19T21:12:01.976Z,50.22
2023-02-19T21:14:29.755Z,49.92
2023-02-19T21:16:57.136Z,50.83
2023-02-19T21:19:24.607Z,51.18
2023-02-19T21:21:52.547Z,50.99
2023-02-19T21:24:20.034Z,51.85
2023-02-19T21:26:47.498Z,51.98
2023-02-19T21:29:19.213Z,52.59
2023-02-19T21:31:49.076Z,52.20
2023-02-19T21:34:19.412Z,52.22
2023-02-19T21:36:47.318Z,52.54
2023-02-19T21:39:17.229Z,52.07
2023-02-19T21:41:45.110Z,51.94
2023-02-19T21:44:12.761Z,52.23
2023-02-19T21:46:40.532Z,52.43
2023-02-19T21:49:08.239Z,52.54
2023-02-19T21:51:38.313Z,51.65
2023-02-19T21:54:06.980Z,52.48
2023-02-19T21:56:36.497Z,52.36
2023-02-19T21:59:04.360Z,52.11
2023-02-19T22:01:38.887Z,52.45
2023-02-19T22:04:07.498Z,52.17
2023-02-19T22:06:35.166Z,51.84
2023-02-19T22:09:03.837Z,51.82
2023-02-19T22:11:31.507Z,52.31
2023-02-19T22:13:58.936Z,52.38
2023-02-19T22:16:26.725Z,52.21
2023-02-19T22:18:57.060Z,52.41
2023-02-19T22:21:27.436Z,53.42
2023-02-19T22:23:55.476Z,52.98
2023-02-19T22:26:29.399Z,53.39
2023-02-19T22:28:58.439Z,52.96
2023-02-19T22:31:26.974Z,52.71
2023-02-19T22:33:55.749Z,53.06
2023-02-19T22:36:26.361Z,53.36
2023-02-19T22:38:54.323Z,53.35
2023-02-19T22:41:21.658Z,53.70
2023-02-19T22:43:50.259Z,53.53
2023-02-19T22:46:20.635Z,53.88
2023-02-19T22:48:47.935Z,54.18
2023-02-19T22:51:18.395Z,54.52
2023-02-19T22:53:47.134Z,54.74
2023-02-19T22:56:16.284Z,54.91
2023-02-19T22:58:45.713Z,54.88
2023-02-19T23:01:14.694Z,55.23
2023-02-19T23:03:49.608Z,55.19
2023-02-19T23:06:20.876Z,55.44
2023-02-19T23:08:49.507Z,55.64
2023-02-19T23:11:28.006Z,56.67
2023-02-19T23:13:55.735Z,56.71
2023-02-19T23:16:23.398Z,57.35
2023-02-19T23:18:50.914Z,57.48
2023-02-19T23:21:19.420Z,57.86
2023-02-19T23:23:47.029Z,57.63
2023-02-19T23:26:15.661Z,57.91
2023-02-19T23:28:44.873Z,57.97
2023-02-19T23:31:13.814Z,58.12
2023-02-19T23:33:41.379Z,58.22
2023-02-19T23:36:10.560Z,58.26
2023-02-19T23:38:38.345Z,58.60
2023-02-19T23:41:10.706Z,59.21
2023-02-19T23:43:39.638Z,59.83
2023-02-19T23:46:07.499Z,59.60
2023-02-19T23:48:35.007Z,60.28
2023-02-19T23:51:02.619Z,60.15
2023-02-19T23:53:29.950Z,60.47
2023-02-19T23:55:57.250Z,60.28
2023-02-19T23:58:24.896Z,60.42
